Time,TemperatureF,DewpointF,PressureIn,WindDirection,WindDirectionDegrees,WindSpeedMPH,WindSpeedGustMPH,Humidity,HourlyPrecipIn,Conditions,Clouds,dailyrainin,SoftwareType,DateUTC
2013-06-30 00:00:00,71.3,69.2,29.69,SSW,199,1.0,1.0,93,0.00,,---,0.10,VWS V14.01,2013-06-30 04:00:00,
2013-06-30 00:30:00,70.7,68.9,29.69,SW,225,0.0,1.0,94,0.00,,---,0.10,VWS V14.01,2013-06-30 04:30:00,
2013-06-30 01:00:00,70.3,68.8,29.71,South,180,1.0,1.0,95,0.00,,---,0.00,VWS V15.00,2013-06-30 05:00:00,
2013-06-30 01:30:00,70.3,68.8,29.70,WSW,241,0.0,1.0,95,0.00,,---,0.00,VWS V14.01,2013-06-30 05:30:00,
2013-06-30 02:00:00,70.3,68.8,29.71,South,180,1.0,1.0,95,0.00,,---,0.00,VWS V14.01,2013-06-30 06:00:00,
2013-06-30 02:30:00,70.2,68.7,29.71,SSW,211,0.0,1.0,95,0.00,,---,0.00,VWS V14.01,2013-06-30 06:30:00,
2013-06-30 03:00:00,70.1,68.9,29.71,South,188,0.0,1.0,96,0.00,,---,0.00,VWS V14.01,2013-06-30 07:00:00,
2013-06-30 03:30:00,70.1,68.9,29.71,SSW,209,0.0,1.0,96,0.00,,---,0.00,VWS V14.01,2013-06-30 07:30:00,
2013-06-30 04:00:00,69.8,68.6,29.71,WSW,238,0.0,1.0,96,0.00,,---,0.00,VWS V14.01,2013-06-30 08:00:00,
2013-06-30 04:30:00,69.8,68.6,29.70,SSW,212,0.0,1.0,96,0.00,,---,0.00,VWS V14.01,2013-06-30 08:30:00,
2013-06-30 05:00:00,69.9,69.0,29.71,SSW,202,0.0,1.0,97,0.00,,---,0.00,VWS V14.01,2013-06-30 09:00:00,
2013-06-30 05:30:00,70.4,69.5,29.71,SSW,196,1.0,1.0,97,0.00,,---,0.00,VWS V14.01,2013-06-30 09:30:00,
2013-06-30 06:00:00,70.7,69.8,29.71,South,185,0.0,1.0,97,0.00,,---,0.00,VWS V14.01,2013-06-30 10:00:00,
2013-06-30 06:30:00,70.6,69.7,29.72,SSW,207,1.0,1.0,97,0.00,,---,0.00,VWS V14.01,2013-06-30 10:30:00,
2013-06-30 07:00:00,70.7,69.8,29.74,South,184,0.0,1.0,97,0.00,,---,0.00,VWS V14.01,2013-06-30 11:00:00,
2013-06-30 07:30:00,71.1,70.2,29.75,SSW,201,1.0,1.0,97,0.00,,---,0.00,VWS V14.01,2013-06-30 11:30:00,
2013-06-30 08:00:00,73.8,72.6,29.77,SSW,198,0.0,1.0,96,0.00,,---,0.00,VWS V15.00,2013-06-30 12:00:00,
2013-06-30 08:30:00,72.8,71.9,29.77,SSW,202,0.0,1.0,97,0.00,,---,0.00,VWS V14.01,2013-06-30 12:30:00,
2013-06-30 09:00:00,73.8,72.6,29.77,SSW,198,0.0,1.0,96,0.00,,---,0.00,VWS V14.01,2013-06-30 13:00:00,
2013-06-30 09:30:00,74.3,72.8,29.78,SSE,153,0.0,1.0,95,0.00,,---,0.00,VWS V14.01,2013-06-30 13:30:00,
2013-06-30 10:00:00,75.5,73.3,29.79,NW,320,0.0,1.0,93,0.00,,---,0.00,VWS V14.01,2013-06-30 14:00:00,
2013-06-30 10:30:00,75.5,73.3,29.79,South,185,1.0,1.0,93,0.00,,---,0.00,VWS V14.01,2013-06-30 14:30:00,
2013-06-30 11:00:00,76.5,74.3,29.80,SSE,162,0.0,1.0,93,0.00,,---,0.00,VWS V15.00,2013-06-30 15:00:00,
2013-06-30 11:30:00,76.0,73.8,29.79,SSW,198,0.0,1.0,93,0.00,,---,0.00,VWS V14.01,2013-06-30 15:30:00,
2013-06-30 12:00:00,76.5,74.3,29.80,SSE,162,0.0,1.0,93,0.00,,---,0.00,VWS V14.01,2013-06-30 16:00:00,
2013-06-30 12:30:00,75.6,73.4,29.79,SW,231,1.0,1.0,93,0.02,,---,0.02,VWS V14.01,2013-06-30 16:30:00,
2013-06-30 13:00:00,74.5,72.7,29.80,West,265,0.0,1.0,94,0.00,,---,0.02,VWS V15.00,2013-06-30 17:00:00,
2013-06-30 13:30:00,74.1,72.3,29.80,SSW,208,1.0,1.0,94,0.02,,---,0.02,VWS V14.01,2013-06-30 17:30:00,
2013-06-30 14:00:00,74.5,72.7,29.80,West,265,0.0,1.0,94,0.00,,---,0.02,VWS V14.01,2013-06-30 18:00:00,
2013-06-30 14:30:00,75.8,73.6,29.80,SW,217,0.0,1.0,93,0.00,,---,0.02,VWS V14.01,2013-06-30 18:30:00,
2013-06-30 15:00:00,77.1,74.6,29.79,SW,221,1.0,2.0,92,0.01,,---,0.03,VWS V14.01,2013-06-30 19:00:00,
2013-06-30 15:30:00,78.6,74.8,29.79,SE,145,1.0,1.0,88,0.01,,---,0.03,VWS V14.01,2013-06-30 19:30:00,
2013-06-30 16:00:00,78.2,74.0,29.80,NNW,328,1.0,1.0,87,0.00,,---,0.03,VWS V15.00,2013-06-30 20:00:00,
2013-06-30 16:30:00,79.4,74.5,29.81,South,188,0.0,1.0,85,0.01,,---,0.03,VWS V14.01,2013-06-30 20:30:00,
2013-06-30 17:00:00,78.2,74.0,29.80,NNW,328,1.0,1.0,87,0.00,,---,0.03,VWS V14.01,2013-06-30 21:00:00,
2013-06-30 17:30:00,77.9,73.7,29.80,SE,139,0.0,1.0,87,0.00,,---,0.03,VWS V14.01,2013-06-30 21:30:00,
2013-06-30 18:00:00,77.2,73.4,29.80,SE,136,0.0,1.0,88,0.00,,---,0.03,VWS V14.01,2013-06-30 22:00:00,
2013-06-30 18:30:00,75.8,72.3,29.81,SE,136,1.0,1.0,89,0.00,,---,0.03,VWS V14.01,2013-06-30 22:30:00,
2013-06-30 19:00:00,75.4,72.6,29.81,SSW,211,0.0,1.0,91,0.00,,---,0.03,VWS V14.01,2013-06-30 23:00:00,
2013-06-30 19:30:00,75.2,72.7,29.81,SW,229,0.0,1.0,92,0.00,,---,0.03,VWS V14.01,2013-06-30 23:30:00,
2013-06-30 20:00:00,74.6,72.1,29.82,NNW,328,0.0,1.0,92,0.00,,---,0.03,VWS V14.01,2013-07-01 00:00:00,
2013-06-30 20:30:00,74.4,72.2,29.83,SW,215,0.0,1.0,93,0.00,,---,0.03,VWS V14.01,2013-07-01 00:30:00,
2013-06-30 21:00:00,72.5,70.7,29.86,West,272,1.0,1.0,94,0.00,,---,0.03,VWS V15.00,2013-07-01 01:00:00,
2013-06-30 21:30:00,73.4,71.6,29.84,East,80,1.0,1.0,94,0.00,,---,0.03,VWS V14.01,2013-07-01 01:30:00,
2013-06-30 22:00:00,72.5,70.7,29.86,West,272,1.0,1.0,94,0.00,,---,0.03,VWS V14.01,2013-07-01 02:00:00,
2013-06-30 22:30:00,72.3,70.8,29.86,South,178,0.0,1.0,95,0.00,,---,0.03,VWS V14.01,2013-07-01 02:30:00,
2013-06-30 23:00:00,72.3,70.8,29.87,SSW,202,1.0,1.0,95,0.00,,---,0.03,VWS V14.01,2013-07-01 03:00:00,
2013-06-30 23:30:00,72.7,71.2,29.87,SE,133,0.0,2.0,95,0.00,,---,0.03,VWS V14.01,2013-07-01 03:30:00,